Pinellas Park, FL

9:25 AM EST on December 25, 2014 (GMT -0500)
Skyview Terrace | Change Station
CLOSE
Current Station
Personal Weather Station
Location: Pinellas Park, FL
Elevation: 30 ft
Nearby Weather Stations
Active Advisory: Coastal Hazard Statement

Elev 30 ft 27.86 °N, 82.70 °W | Updated 3 seconds ago

Overcast
Overcast
62.6 °F
Feels Like 62.6 °F
N
3.1
Wind Variable Wind from NE
Gusts 6.9 mph

Today
High -- | Low -- °F
--% Chance of Precip.
Yesterday
High -- | Low -- °F
Precip. -- in
7:19 AM 5:42 PM
Waxing Crescent, 16% visible
Pressure 30.19 in
Visibility 10.0 miles
Clouds Few 4900 ft
Mostly Cloudy 8000 ft
Dew Point 52 °F
Humidity 68%
Rainfall 0.00 in
Snow Depth Not available.
UV 1 out of 12
Pollen .80 out of 12
Air Quality Not available.
Flu Activity Not available.
METAR KPIE 251353Z 36010KT 10SM FEW049 BKN080 17/11 A3019 RMK AO2 SLP221 T01670111 $

More Conditions Fewer Conditions

Pressure 30.19 in
Visibility 10.0 miles
Clouds Few 4900 ft
Mostly Cloudy 8000 ft
Dew Point 52 °F
Humidity 68%
Rainfall 0.00 in
Snow Depth Not available.
UV 1 out of 12
Pollen .80 out of 12
Air Quality Not available.
Flu Activity Not available.
METAR KPIE 251353Z 36010KT 10SM FEW049 BKN080 17/11 A3019 RMK AO2 SLP221 T01670111 $

More Conditions Fewer Conditions

10-Day Weather Forecast

Almanac

Astronomy

Dec. 25, 2014 Rise Set
Actual Time
Civil Twilight
Nautical Twilight
Astronomical Twilight
Moon
Length of Visible Light
Length of Day
Tomorrow will be .
, % of the Moon is Illuminated

Today's Extremes

State Highs State Lows

Community

WunderPhotos

Upload Photos

1,780,276 photos uploaded!

WunderBlogs® & News

Nearby

Air Quality

  Air Quality AQ Index Pollutant
Not available.

Snow Depth

Station Depth Elevation

Earthquake Activity

City Distance Mag. Time & Date
Minimum magnitude displayed is 2.5.

Coastal Water Temperatures

Place Temperature

Nearby Weather Stations